sensor_id;sensor_type;location;lat;lon;timestamp;pressure;altitude;pressure_sealevel;temperature;humidity
41078;BME280;26823;42.662;23.352;2022-11-15T00:00:25;95356.16;;;3.37;89.04
41078;BME280;26823;42.662;23.352;2022-11-15T00:02:52;95353.69;;;3.36;89.01
41078;BME280;26823;42.662;23.352;2022-11-15T00:05:18;95332.78;;;3.26;88.96
41078;BME280;26823;42.662;23.352;2022-11-15T00:07:43;95310.16;;;3.03;88.72
41078;BME280;26823;42.662;23.352;2022-11-15T00:10:09;95357.63;;;3.33;88.18
41078;BME280;26823;42.662;23.352;2022-11-15T00:12:34;95351.06;;;3.29;88.41
41078;BME280;26823;42.662;23.352;2022-11-15T00:14:59;95346.16;;;3.26;88.35
41078;BME280;26823;42.662;23.352;2022-11-15T00:17:25;95351.06;;;3.29;88.44
41078;BME280;26823;42.662;23.352;2022-11-15T00:19:50;95352.31;;;3.26;88.00
41078;BME280;26823;42.662;23.352;2022-11-15T00:22:16;95352.31;;;3.26;88.18
41078;BME280;26823;42.662;23.352;2022-11-15T00:24:41;95351.94;;;3.23;88.37
41078;BME280;26823;42.662;23.352;2022-11-15T00:27:08;95355.06;;;3.20;88.32
41078;BME280;26823;42.662;23.352;2022-11-15T00:29:33;95343.97;;;3.16;88.34
41078;BME280;26823;42.662;23.352;2022-11-15T00:31:59;95339.97;;;3.25;87.61
41078;BME280;26823;42.662;23.352;2022-11-15T00:34:24;95334.53;;;3.14;87.70
41078;BME280;26823;42.662;23.352;2022-11-15T00:36:49;95340.13;;;3.12;88.15
41078;BME280;26823;42.662;23.352;2022-11-15T00:39:15;95331.47;;;3.10;87.88
41078;BME280;26823;42.662;23.352;2022-11-15T00:41:40;95306.50;;;2.98;87.94
41078;BME280;26823;42.662;23.352;2022-11-15T00:44:06;95332.50;;;3.09;87.78
41078;BME280;26823;42.662;23.352;2022-11-15T00:46:31;95339.94;;;3.07;87.84
41078;BME280;26823;42.662;23.352;2022-11-15T00:48:56;95338.69;;;3.09;87.79
41078;BME280;26823;42.662;23.352;2022-11-15T00:51:22;95332.66;;;2.96;88.27
41078;BME280;26823;42.662;23.352;2022-11-15T00:53:47;95329.13;;;2.95;88.03
41078;BME280;26823;42.662;23.352;2022-11-15T00:56:13;95317.31;;;2.84;88.71
41078;BME280;26823;42.662;23.352;2022-11-15T00:58:38;95314.69;;;2.77;88.58
41078;BME280;26823;42.662;23.352;2022-11-15T01:01:09;95319.75;;;2.86;88.58
41078;BME280;26823;42.662;23.352;2022-11-15T01:03:35;95320.94;;;2.97;87.81
41078;BME280;26823;42.662;23.352;2022-11-15T01:06:01;95327.72;;;2.92;88.85
41078;BME280;26823;42.662;23.352;2022-11-15T01:08:27;95319.59;;;2.81;88.26
41078;BME280;26823;42.662;23.352;2022-11-15T01:10:52;95315.91;;;2.82;89.11
41078;BME280;26823;42.662;23.352;2022-11-15T01:13:18;95317.78;;;2.74;88.76
41078;BME280;26823;42.662;23.352;2022-11-15T01:15:43;95321.00;;;2.83;89.03
41078;BME280;26823;42.662;23.352;2022-11-15T01:18:09;95312.66;;;2.73;88.45
41078;BME280;26823;42.662;23.352;2022-11-15T01:20:38;95319.66;;;2.74;88.82
41078;BME280;26823;42.662;23.352;2022-11-15T01:23:04;95311.47;;;2.69;88.79
41078;BME280;26823;42.662;23.352;2022-11-15T01:25:29;95320.28;;;2.69;88.45
41078;BME280;26823;42.662;23.352;2022-11-15T01:27:54;95312.50;;;2.68;89.19
41078;BME280;26823;42.662;23.352;2022-11-15T01:30:20;95312.50;;;2.68;88.59
41078;BME280;26823;42.662;23.352;2022-11-15T01:32:45;95297.56;;;2.60;88.60
41078;BME280;26823;42.662;23.352;2022-11-15T01:35:42;95309.84;;;2.68;88.58
41078;BME280;26823;42.662;23.352;2022-11-15T01:38:13;95310.63;;;2.68;89.00
41078;BME280;26823;42.662;23.352;2022-11-15T01:40:39;95304.72;;;2.66;88.31
41078;BME280;26823;42.662;23.352;2022-11-15T01:43:26;95317.38;;;2.77;88.68
41078;BME280;26823;42.662;23.352;2022-11-15T01:48:31;95276.50;;;2.45;89.41
41078;BME280;26823;42.662;23.352;2022-11-15T01:50:58;95312.34;;;2.63;89.21
41078;BME280;26823;42.662;23.352;2022-11-15T01:53:26;95303.38;;;2.50;89.31
41078;BME280;26823;42.662;23.352;2022-11-15T01:55:52;95309.09;;;2.54;89.27
41078;BME280;26823;42.662;23.352;2022-11-15T01:58:18;95319.34;;;2.57;89.60
41078;BME280;26823;42.662;23.352;2022-11-15T02:00:44;95311.72;;;2.60;89.46
41078;BME280;26823;42.662;23.352;2022-11-15T02:03:10;95313.38;;;2.61;89.25
41078;BME280;26823;42.662;23.352;2022-11-15T02:05:36;95298.88;;;2.44;88.92
41078;BME280;26823;42.662;23.352;2022-11-15T02:08:02;95304.53;;;2.61;89.06
41078;BME280;26823;42.662;23.352;2022-11-15T02:10:27;95306.78;;;2.64;88.93
41078;BME280;26823;42.662;23.352;2022-11-15T02:12:55;95311.22;;;2.45;89.23
41078;BME280;26823;42.662;23.352;2022-11-15T02:15:24;95305.44;;;2.48;89.27
41078;BME280;26823;42.662;23.352;2022-11-15T02:18:07;95307.38;;;2.66;89.43
41078;BME280;26823;42.662;23.352;2022-11-15T02:29:26;95285.59;;;2.37;88.30
41078;BME280;26823;42.662;23.352;2022-11-15T02:34:32;95309.16;;;2.47;88.61
41078;BME280;26823;42.662;23.352;2022-11-15T02:37:16;95290.50;;;2.40;88.41
41078;BME280;26823;42.662;23.352;2022-11-15T02:39:46;95305.59;;;2.53;88.95
41078;BME280;26823;42.662;23.352;2022-11-15T02:42:21;95301.50;;;2.51;89.32
41078;BME280;26823;42.662;23.352;2022-11-15T02:45:10;95307.25;;;2.54;88.45
41078;BME280;26823;42.662;23.352;2022-11-15T02:47:43;95261.00;;;2.28;89.40
41078;BME280;26823;42.662;23.352;2022-11-15T02:50:14;95296.16;;;2.51;89.12
41078;BME280;26823;42.662;23.352;2022-11-15T02:52:44;95295.41;;;2.43;89.52
41078;BME280;26823;42.662;23.352;2022-11-15T02:55:46;95312.97;;;2.58;88.95
41078;BME280;26823;42.662;23.352;2022-11-15T03:03:56;95313.81;;;2.58;89.06
41078;BME280;26823;42.662;23.352;2022-11-15T03:06:42;95297.25;;;2.43;88.52
41078;BME280;26823;42.662;23.352;2022-11-15T03:11:50;95313.84;;;2.52;89.51
41078;BME280;26823;42.662;23.352;2022-11-15T03:14:35;95296.47;;;2.68;88.12
41078;BME280;26823;42.662;23.352;2022-11-15T03:17:12;95307.16;;;2.68;88.04
41078;BME280;26823;42.662;23.352;2022-11-15T03:19:46;95299.97;;;2.68;87.77
41078;BME280;26823;42.662;23.352;2022-11-15T03:22:16;95303.84;;;2.72;88.48
41078;BME280;26823;42.662;23.352;2022-11-15T03:24:44;95301.75;;;2.74;88.63
41078;BME280;26823;42.662;23.352;2022-11-15T03:27:14;95295.91;;;2.59;88.51
41078;BME280;26823;42.662;23.352;2022-11-15T03:29:45;95250.38;;;2.22;88.89
41078;BME280;26823;42.662;23.352;2022-11-15T03:32:25;95295.44;;;2.37;89.80
41078;BME280;26823;42.662;23.352;2022-11-15T03:34:52;95292.63;;;2.57;89.31
41078;BME280;26823;42.662;23.352;2022-11-15T03:37:20;95287.13;;;2.20;90.51
41078;BME280;26823;42.662;23.352;2022-11-15T03:39:47;95274.63;;;2.14;90.82
41078;BME280;26823;42.662;23.352;2022-11-15T03:42:30;95279.41;;;2.37;90.94
41078;BME280;26823;42.662;23.352;2022-11-15T03:50:19;95274.97;;;2.56;90.32
41078;BME280;26823;42.662;23.352;2022-11-15T03:52:46;95267.50;;;2.39;90.26
41078;BME280;26823;42.662;23.352;2022-11-15T03:55:15;95262.94;;;2.15;91.61
41078;BME280;26823;42.662;23.352;2022-11-15T03:57:42;95226.91;;;1.99;92.49
41078;BME280;26823;42.662;23.352;2022-11-15T04:00:08;95262.47;;;2.24;92.81
41078;BME280;26823;42.662;23.352;2022-11-15T04:02:33;95223.31;;;1.79;93.25
41078;BME280;26823;42.662;23.352;2022-11-15T04:04:59;95259.06;;;2.10;93.40
41078;BME280;26823;42.662;23.352;2022-11-15T04:07:24;95260.81;;;1.85;92.85
41078;BME280;26823;42.662;23.352;2022-11-15T04:09:49;95261.16;;;2.02;93.08
41078;BME280;26823;42.662;23.352;2022-11-15T04:12:36;95262.38;;;2.06;91.94
41078;BME280;26823;42.662;23.352;2022-11-15T04:19:59;95251.81;;;1.86;92.86
41078;BME280;26823;42.662;23.352;2022-11-15T04:22:43;95215.06;;;1.42;93.80
41078;BME280;26823;42.662;23.352;2022-11-15T04:25:27;95211.03;;;1.26;93.85
41078;BME280;26823;42.662;23.352;2022-11-15T04:27:53;95251.75;;;1.54;94.88
41078;BME280;26823;42.662;23.352;2022-11-15T04:30:18;95242.78;;;1.35;95.52
41078;BME280;26823;42.662;23.352;2022-11-15T04:32:44;95214.94;;;1.30;95.36
41078;BME280;26823;42.662;23.352;2022-11-15T04:35:09;95244.81;;;1.46;95.37
41078;BME280;26823;42.662;23.352;2022-11-15T04:37:41;95256.31;;;1.40;95.32
41078;BME280;26823;42.662;23.352;2022-11-15T04:40:13;95215.34;;;1.14;95.39
41078;BME280;26823;42.662;23.352;2022-11-15T04:42:41;95256.06;;;1.55;95.47
41078;BME280;26823;42.662;23.352;2022-11-15T04:45:08;95233.13;;;1.40;95.33
41078;BME280;26823;42.662;23.352;2022-11-15T04:47:33;95235.09;;;1.65;95.06
41078;BME280;26823;42.662;23.352;2022-11-15T04:49:58;95267.84;;;1.79;94.31
41078;BME280;26823;42.662;23.352;2022-11-15T04:52:24;95267.88;;;1.66;96.26
41078;BME280;26823;42.662;23.352;2022-11-15T04:54:49;95255.25;;;1.48;98.21
41078;BME280;26823;42.662;23.352;2022-11-15T04:57:15;95263.34;;;1.73;99.26
41078;BME280;26823;42.662;23.352;2022-11-15T04:59:40;95237.03;;;1.83;98.25
41078;BME280;26823;42.662;23.352;2022-11-15T05:02:06;95253.16;;;2.02;97.64
41078;BME280;26823;42.662;23.352;2022-11-15T05:04:31;95248.25;;;1.99;98.61
41078;BME280;26823;42.662;23.352;2022-11-15T05:06:57;95262.53;;;2.11;98.36
41078;BME280;26823;42.662;23.352;2022-11-15T05:09:22;95264.09;;;2.25;98.49
41078;BME280;26823;42.662;23.352;2022-11-15T05:11:47;95257.66;;;2.40;98.17
41078;BME280;26823;42.662;23.352;2022-11-15T05:14:13;95268.44;;;2.52;96.95
41078;BME280;26823;42.662;23.352;2022-11-15T05:16:39;95237.75;;;2.36;97.77
41078;BME280;26823;42.662;23.352;2022-11-15T05:19:05;95256.94;;;2.51;98.09
41078;BME280;26823;42.662;23.352;2022-11-15T05:21:31;95269.31;;;2.71;97.95
41078;BME280;26823;42.662;23.352;2022-11-15T05:23:56;95260.44;;;2.77;97.65
41078;BME280;26823;42.662;23.352;2022-11-15T05:26:22;95247.78;;;2.66;97.66
41078;BME280;26823;42.662;23.352;2022-11-15T05:28:53;95277.66;;;2.81;97.03
41078;BME280;26823;42.662;23.352;2022-11-15T05:31:19;95260.97;;;2.86;97.41
41078;BME280;26823;42.662;23.352;2022-11-15T05:33:44;95271.88;;;2.84;97.26
41078;BME280;26823;42.662;23.352;2022-11-15T05:38:52;95261.56;;;2.37;100.00
41078;BME280;26823;42.662;23.352;2022-11-15T05:41:21;95245.91;;;2.09;100.00
41078;BME280;26823;42.662;23.352;2022-11-15T05:43:48;95265.66;;;2.08;100.00
41078;BME280;26823;42.662;23.352;2022-11-15T05:46:14;95255.75;;;2.15;100.00
41078;BME280;26823;42.662;23.352;2022-11-15T05:48:43;95263.50;;;2.23;100.00
41078;BME280;26823;42.662;23.352;2022-11-15T05:51:11;95272.41;;;2.10;100.00
41078;BME280;26823;42.662;23.352;2022-11-15T05:53:37;95267.81;;;2.24;100.00
41078;BME280;26823;42.662;23.352;2022-11-15T05:56:04;95249.81;;;2.45;100.00
41078;BME280;26823;42.662;23.352;2022-11-15T05:58:34;95267.84;;;2.50;100.00
41078;BME280;26823;42.662;23.352;2022-11-15T06:01:01;95264.81;;;2.39;100.00
41078;BME280;26823;42.662;23.352;2022-11-15T06:03:26;95257.91;;;2.57;100.00
41078;BME280;26823;42.662;23.352;2022-11-15T06:05:52;95275.09;;;2.68;100.00
41078;BME280;26823;42.662;23.352;2022-11-15T06:08:17;95277.88;;;2.54;100.00
41078;BME280;26823;42.662;23.352;2022-11-15T06:10:42;95271.81;;;2.40;100.00
41078;BME280;26823;42.662;23.352;2022-11-15T06:13:08;95270.47;;;2.24;100.00
41078;BME280;26823;42.662;23.352;2022-11-15T06:15:33;95265.91;;;2.32;100.00
41078;BME280;26823;42.662;23.352;2022-11-15T06:17:59;95274.69;;;2.39;100.00
41078;BME280;26823;42.662;23.352;2022-11-15T06:20:26;95286.19;;;2.39;100.00
41078;BME280;26823;42.662;23.352;2022-11-15T06:22:59;95283.47;;;2.46;100.00
41078;BME280;26823;42.662;23.352;2022-11-15T06:25:25;95284.94;;;2.42;100.00
41078;BME280;26823;42.662;23.352;2022-11-15T06:27:55;95273.38;;;2.48;100.00
41078;BME280;26823;42.662;23.352;2022-11-15T06:30:21;95283.06;;;2.74;100.00
41078;BME280;26823;42.662;23.352;2022-11-15T06:32:47;95279.81;;;2.72;100.00
41078;BME280;26823;42.662;23.352;2022-11-15T06:35:13;95269.44;;;2.57;100.00
41078;BME280;26823;42.662;23.352;2022-11-15T06:37:39;95265.06;;;2.63;100.00
41078;BME280;26823;42.662;23.352;2022-11-15T06:40:05;95266.81;;;2.76;100.00
41078;BME280;26823;42.662;23.352;2022-11-15T06:42:31;95264.75;;;2.78;100.00
41078;BME280;26823;42.662;23.352;2022-11-15T06:44:56;95264.34;;;3.00;100.00
41078;BME280;26823;42.662;23.352;2022-11-15T06:47:22;95268.78;;;2.87;100.00
41078;BME280;26823;42.662;23.352;2022-11-15T06:49:47;95261.19;;;3.09;100.00
41078;BME280;26823;42.662;23.352;2022-11-15T06:52:12;95264.25;;;3.13;99.93
41078;BME280;26823;42.662;23.352;2022-11-15T06:54:38;95268.41;;;3.28;99.59
41078;BME280;26823;42.662;23.352;2022-11-15T06:57:06;95268.56;;;3.14;98.72
41078;BME280;26823;42.662;23.352;2022-11-15T06:59:32;95246.59;;;2.87;100.00
41078;BME280;26823;42.662;23.352;2022-11-15T07:01:57;95262.75;;;3.17;99.21
41078;BME280;26823;42.662;23.352;2022-11-15T07:04:22;95263.03;;;3.09;97.77
41078;BME280;26823;42.662;23.352;2022-11-15T07:06:48;95253.50;;;2.94;97.67
41078;BME280;26823;42.662;23.352;2022-11-15T07:09:14;95274.31;;;3.11;98.26
41078;BME280;26823;42.662;23.352;2022-11-15T07:11:39;95270.94;;;2.97;98.39
41078;BME280;26823;42.662;23.352;2022-11-15T07:14:05;95270.56;;;2.93;98.58
41078;BME280;26823;42.662;23.352;2022-11-15T07:16:30;95251.53;;;3.08;98.37
41078;BME280;26823;42.662;23.352;2022-11-15T07:18:56;95257.88;;;2.89;99.10
41078;BME280;26823;42.662;23.352;2022-11-15T07:21:21;95252.56;;;3.07;99.09
41078;BME280;26823;42.662;23.352;2022-11-15T07:23:47;95233.13;;;3.19;98.83
41078;BME280;26823;42.662;23.352;2022-11-15T07:26:12;95244.59;;;3.45;98.05
41078;BME280;26823;42.662;23.352;2022-11-15T07:28:37;95248.81;;;3.52;96.34
41078;BME280;26823;42.662;23.352;2022-11-15T07:31:04;95261.88;;;3.42;96.59
41078;BME280;26823;42.662;23.352;2022-11-15T07:33:30;95267.97;;;3.49;97.17
41078;BME280;26823;42.662;23.352;2022-11-15T07:35:59;95252.16;;;3.66;96.54
41078;BME280;26823;42.662;23.352;2022-11-15T07:38:26;95256.81;;;3.71;96.40
41078;BME280;26823;42.662;23.352;2022-11-15T07:41:00;95246.63;;;3.80;94.91
41078;BME280;26823;42.662;23.352;2022-11-15T07:43:26;95260.28;;;3.90;95.10
41078;BME280;26823;42.662;23.352;2022-11-15T07:45:58;95258.56;;;3.96;94.43
41078;BME280;26823;42.662;23.352;2022-11-15T07:48:23;95255.81;;;3.84;94.78
41078;BME280;26823;42.662;23.352;2022-11-15T07:50:49;95257.66;;;3.71;95.15
41078;BME280;26823;42.662;23.352;2022-11-15T07:53:14;95249.09;;;3.44;96.67
41078;BME280;26823;42.662;23.352;2022-11-15T07:55:41;95246.34;;;3.32;97.08
41078;BME280;26823;42.662;23.352;2022-11-15T07:58:10;95253.16;;;3.28;97.56
41078;BME280;26823;42.662;23.352;2022-11-15T08:00:36;95255.03;;;3.28;98.53
41078;BME280;26823;42.662;23.352;2022-11-15T08:03:13;95251.53;;;3.46;98.19
41078;BME280;26823;42.662;23.352;2022-11-15T08:05:41;95257.50;;;3.48;97.60
41078;BME280;26823;42.662;23.352;2022-11-15T08:08:08;95249.31;;;3.42;98.07
41078;BME280;26823;42.662;23.352;2022-11-15T08:10:34;95252.00;;;3.42;97.83
41078;BME280;26823;42.662;23.352;2022-11-15T08:13:07;95251.69;;;3.51;98.79
41078;BME280;26823;42.662;23.352;2022-11-15T08:15:34;95251.41;;;3.78;98.57
41078;BME280;26823;42.662;23.352;2022-11-15T08:18:01;95237.97;;;3.96;97.20
41078;BME280;26823;42.662;23.352;2022-11-15T08:20:28;95242.63;;;4.19;96.84
41078;BME280;26823;42.662;23.352;2022-11-15T08:22:58;95243.09;;;4.28;95.65
41078;BME280;26823;42.662;23.352;2022-11-15T08:25:24;95245.34;;;4.43;94.37
41078;BME280;26823;42.662;23.352;2022-11-15T08:27:54;95237.34;;;4.55;93.93
41078;BME280;26823;42.662;23.352;2022-11-15T08:30:20;95243.84;;;4.47;93.17
41078;BME280;26823;42.662;23.352;2022-11-15T08:32:46;95242.09;;;4.41;94.39
41078;BME280;26823;42.662;23.352;2022-11-15T08:35:12;95246.44;;;4.54;93.76
41078;BME280;26823;42.662;23.352;2022-11-15T08:37:37;95241.97;;;4.48;92.68
41078;BME280;26823;42.662;23.352;2022-11-15T08:40:04;95237.41;;;4.36;94.30
41078;BME280;26823;42.662;23.352;2022-11-15T08:42:29;95220.06;;;4.51;93.85
41078;BME280;26823;42.662;23.352;2022-11-15T08:44:55;95228.03;;;4.69;93.43
41078;BME280;26823;42.662;23.352;2022-11-15T08:47:20;95224.91;;;4.84;91.90
41078;BME280;26823;42.662;23.352;2022-11-15T08:49:45;95223.88;;;4.97;91.83
41078;BME280;26823;42.662;23.352;2022-11-15T08:52:11;95204.97;;;4.56;91.24
41078;BME280;26823;42.662;23.352;2022-11-15T08:54:36;95223.59;;;4.63;91.86
41078;BME280;26823;42.662;23.352;2022-11-15T08:57:02;95215.31;;;4.53;92.45
41078;BME280;26823;42.662;23.352;2022-11-15T08:59:27;95207.16;;;4.48;92.96
41078;BME280;26823;42.662;23.352;2022-11-15T09:01:53;95218.72;;;4.72;92.46
41078;BME280;26823;42.662;23.352;2022-11-15T09:04:18;95190.28;;;4.59;91.85
41078;BME280;26823;42.662;23.352;2022-11-15T09:06:44;95196.13;;;4.80;91.42
41078;BME280;26823;42.662;23.352;2022-11-15T09:09:09;95202.19;;;5.11;91.02
41078;BME280;26823;42.662;23.352;2022-11-15T09:11:35;95206.72;;;5.10;89.83
41078;BME280;26823;42.662;23.352;2022-11-15T09:14:00;95191.69;;;5.09;90.93
41078;BME280;26823;42.662;23.352;2022-11-15T09:16:26;95197.53;;;5.06;90.40
41078;BME280;26823;42.662;23.352;2022-11-15T09:18:53;95192.28;;;4.99;91.13
41078;BME280;26823;42.662;23.352;2022-11-15T09:21:18;95188.66;;;4.94;90.20
41078;BME280;26823;42.662;23.352;2022-11-15T09:23:44;95160.00;;;4.59;91.09
41078;BME280;26823;42.662;23.352;2022-11-15T09:26:09;95163.63;;;4.64;92.17
41078;BME280;26823;42.662;23.352;2022-11-15T09:28:36;95180.38;;;5.07;91.11
41078;BME280;26823;42.662;23.352;2022-11-15T09:31:03;95187.84;;;5.17;90.61
41078;BME280;26823;42.662;23.352;2022-11-15T09:33:29;95168.63;;;5.08;90.00
41078;BME280;26823;42.662;23.352;2022-11-15T09:36:03;95179.19;;;5.38;88.85
41078;BME280;26823;42.662;23.352;2022-11-15T09:38:29;95159.66;;;5.43;88.13
41078;BME280;26823;42.662;23.352;2022-11-15T09:46:50;95163.59;;;5.64;87.53
41078;BME280;26823;42.662;23.352;2022-11-15T09:49:21;95168.44;;;5.79;86.35
41078;BME280;26823;42.662;23.352;2022-11-15T09:51:49;95157.00;;;5.72;86.35
41078;BME280;26823;42.662;23.352;2022-11-15T09:54:47;95151.72;;;5.89;86.05
41078;BME280;26823;42.662;23.352;2022-11-15T09:57:16;95151.31;;;6.26;84.77
41078;BME280;26823;42.662;23.352;2022-11-15T10:00:04;95131.31;;;6.05;85.47
41078;BME280;26823;42.662;23.352;2022-11-15T10:03:09;95146.06;;;6.88;82.96
41078;BME280;26823;42.662;23.352;2022-11-15T10:05:40;95133.94;;;7.46;79.46
41078;BME280;26823;42.662;23.352;2022-11-15T10:11:23;95121.53;;;8.55;75.41
41078;BME280;26823;42.662;23.352;2022-11-15T10:13:51;95125.88;;;9.52;70.56
41078;BME280;26823;42.662;23.352;2022-11-15T10:16:55;95126.25;;;9.86;67.60
41078;BME280;26823;42.662;23.352;2022-11-15T10:19:35;95121.69;;;11.21;61.78
41078;BME280;26823;42.662;23.352;2022-11-15T10:25:21;95118.97;;;12.42;57.48
41078;BME280;26823;42.662;23.352;2022-11-15T10:27:53;95109.41;;;13.43;54.57
41078;BME280;26823;42.662;23.352;2022-11-15T10:30:28;95115.22;;;14.56;50.16
41078;BME280;26823;42.662;23.352;2022-11-15T10:32:54;95102.88;;;17.12;44.04
41078;BME280;26823;42.662;23.352;2022-11-15T10:35:25;95107.88;;;19.40;38.29
41078;BME280;26823;42.662;23.352;2022-11-15T10:37:50;95079.44;;;18.01;38.33
41078;BME280;26823;42.662;23.352;2022-11-15T10:40:23;95093.44;;;15.91;42.93
41078;BME280;26823;42.662;23.352;2022-11-15T10:45:34;95070.88;;;13.79;49.02
41078;BME280;26823;42.662;23.352;2022-11-15T10:50:39;95057.53;;;13.15;52.61
41078;BME280;26823;42.662;23.352;2022-11-15T10:55:47;95064.63;;;11.72;56.96
41078;BME280;26823;42.662;23.352;2022-11-15T11:01:29;95053.63;;;13.21;53.05
41078;BME280;26823;42.662;23.352;2022-11-15T11:04:08;95049.94;;;13.98;51.08
41078;BME280;26823;42.662;23.352;2022-11-15T11:06:50;95043.84;;;15.61;46.25
41078;BME280;26823;42.662;23.352;2022-11-15T11:11:57;95037.84;;;16.24;44.60
41078;BME280;26823;42.662;23.352;2022-11-15T11:14:28;95033.75;;;15.62;44.71
41078;BME280;26823;42.662;23.352;2022-11-15T11:19:46;95026.47;;;16.22;44.00
41078;BME280;26823;42.662;23.352;2022-11-15T11:30:20;95001.69;;;14.89;46.54
41078;BME280;26823;42.662;23.352;2022-11-15T11:35:50;94996.03;;;14.86;46.94
41078;BME280;26823;42.662;23.352;2022-11-15T11:39:00;94989.72;;;14.57;47.53
41078;BME280;26823;42.662;23.352;2022-11-15T11:41:43;94979.00;;;13.62;50.48
41078;BME280;26823;42.662;23.352;2022-11-15T11:44:39;94968.53;;;13.07;52.62
41078;BME280;26823;42.662;23.352;2022-11-15T11:47:32;94976.53;;;13.41;52.13
41078;BME280;26823;42.662;23.352;2022-11-15T11:50:21;94961.94;;;13.56;51.23
41078;BME280;26823;42.662;23.352;2022-11-15T11:58:31;94963.22;;;14.30;48.85
41078;BME280;26823;42.662;23.352;2022-11-15T12:06:42;94945.03;;;13.78;50.33
41078;BME280;26823;42.662;23.352;2022-11-15T12:17:34;94933.50;;;16.81;43.36
41078;BME280;26823;42.662;23.352;2022-11-15T12:20:04;94926.03;;;17.97;40.04
41078;BME280;26823;42.662;23.352;2022-11-15T12:29:58;94913.25;;;18.28;39.04
41078;BME280;26823;42.662;23.352;2022-11-15T12:32:31;94907.03;;;19.13;36.98
41078;BME280;26823;42.662;23.352;2022-11-15T12:35:00;94910.97;;;18.56;38.83
41078;BME280;26823;42.662;23.352;2022-11-15T12:37:53;94902.16;;;18.24;38.54
41078;BME280;26823;42.662;23.352;2022-11-15T12:40:23;94904.44;;;18.13;38.82
41078;BME280;26823;42.662;23.352;2022-11-15T12:46:02;94885.94;;;17.66;39.93
41078;BME280;26823;42.662;23.352;2022-11-15T12:51:01;94893.47;;;18.31;38.76
41078;BME280;26823;42.662;23.352;2022-11-15T12:53:29;94886.56;;;17.19;40.77
41078;BME280;26823;42.662;23.352;2022-11-15T13:11:56;94872.28;;;13.56;51.15
41078;BME280;26823;42.662;23.352;2022-11-15T13:17:23;94865.47;;;14.06;50.13
41078;BME280;26823;42.662;23.352;2022-11-15T13:22:18;94855.38;;;14.81;48.21
41078;BME280;26823;42.662;23.352;2022-11-15T13:28:51;94851.91;;;16.08;44.73
41078;BME280;26823;42.662;23.352;2022-11-15T13:33:48;94849.47;;;16.87;42.41
41078;BME280;26823;42.662;23.352;2022-11-15T13:36:18;94844.44;;;16.22;44.08
41078;BME280;26823;42.662;23.352;2022-11-15T13:38:44;94835.94;;;16.64;42.96
41078;BME280;26823;42.662;23.352;2022-11-15T13:41:20;94838.91;;;16.45;43.22
41078;BME280;26823;42.662;23.352;2022-11-15T13:43:47;94842.34;;;16.19;44.23
41078;BME280;26823;42.662;23.352;2022-11-15T13:46:19;94837.59;;;16.02;44.39
41078;BME280;26823;42.662;23.352;2022-11-15T13:48:47;94830.84;;;15.31;46.05
41078;BME280;26823;42.662;23.352;2022-11-15T13:51:39;94848.59;;;14.92;47.35
41078;BME280;26823;42.662;23.352;2022-11-15T13:56:34;94838.19;;;14.39;49.26
41078;BME280;26823;42.662;23.352;2022-11-15T13:59:09;94837.81;;;14.45;48.99
41078;BME280;26823;42.662;23.352;2022-11-15T14:01:34;94830.84;;;13.64;50.98
41078;BME280;26823;42.662;23.352;2022-11-15T14:04:00;94840.63;;;13.27;52.46
41078;BME280;26823;42.662;23.352;2022-11-15T14:06:28;94816.47;;;12.25;55.27
41078;BME280;26823;42.662;23.352;2022-11-15T14:09:24;94826.41;;;11.76;57.75
41078;BME280;26823;42.662;23.352;2022-11-15T14:11:54;94812.09;;;11.06;60.50
41078;BME280;26823;42.662;23.352;2022-11-15T14:14:25;94826.50;;;10.47;63.51
41078;BME280;26823;42.662;23.352;2022-11-15T14:16:58;94815.03;;;10.00;66.00
41078;BME280;26823;42.662;23.352;2022-11-15T14:24:38;94813.72;;;9.87;66.67
41078;BME280;26823;42.662;23.352;2022-11-15T14:27:33;94811.88;;;9.41;69.30
41078;BME280;26823;42.662;23.352;2022-11-15T14:29:59;94811.06;;;9.25;70.22
41078;BME280;26823;42.662;23.352;2022-11-15T14:32:27;94826.72;;;9.38;69.57
41078;BME280;26823;42.662;23.352;2022-11-15T14:34:58;94819.97;;;9.30;70.37
41078;BME280;26823;42.662;23.352;2022-11-15T14:37:31;94821.03;;;9.40;69.84
41078;BME280;26823;42.662;23.352;2022-11-15T14:40:03;94818.34;;;9.24;70.84
41078;BME280;26823;42.662;23.352;2022-11-15T14:42:29;94824.28;;;9.16;70.95
41078;BME280;26823;42.662;23.352;2022-11-15T14:44:55;94810.81;;;9.06;71.00
41078;BME280;26823;42.662;23.352;2022-11-15T14:47:20;94786.75;;;8.84;71.35
41078;BME280;26823;42.662;23.352;2022-11-15T14:49:46;94824.25;;;8.90;72.35
41078;BME280;26823;42.662;23.352;2022-11-15T14:54:43;94820.75;;;8.90;72.36
41078;BME280;26823;42.662;23.352;2022-11-15T14:57:08;94816.69;;;8.72;73.34
41078;BME280;26823;42.662;23.352;2022-11-15T14:59:34;94815.34;;;8.74;72.96
41078;BME280;26823;42.662;23.352;2022-11-15T15:01:59;94818.00;;;8.59;74.13
41078;BME280;26823;42.662;23.352;2022-11-15T15:04:24;94822.28;;;8.49;74.64
41078;BME280;26823;42.662;23.352;2022-11-15T15:06:50;94810.38;;;8.40;74.82
41078;BME280;26823;42.662;23.352;2022-11-15T15:09:15;94816.25;;;8.32;75.92
41078;BME280;26823;42.662;23.352;2022-11-15T15:11:41;94818.41;;;8.25;75.77
41078;BME280;26823;42.662;23.352;2022-11-15T15:14:07;94802.81;;;7.79;78.55
41078;BME280;26823;42.662;23.352;2022-11-15T15:16:33;94805.59;;;7.94;77.85
41078;BME280;26823;42.662;23.352;2022-11-15T15:18:58;94799.13;;;7.95;77.64
41078;BME280;26823;42.662;23.352;2022-11-15T15:21:26;94818.53;;;7.97;77.46
41078;BME280;26823;42.662;23.352;2022-11-15T15:23:56;94813.31;;;7.75;78.76
41078;BME280;26823;42.662;23.352;2022-11-15T15:26:23;94807.31;;;7.63;79.83
41078;BME280;26823;42.662;23.352;2022-11-15T15:28:49;94809.25;;;7.73;79.47
41078;BME280;26823;42.662;23.352;2022-11-15T15:31:16;94801.19;;;7.73;79.72
41078;BME280;26823;42.662;23.352;2022-11-15T15:33:41;94789.84;;;7.65;79.93